createdAt,value
2023-05-09T04:21:33.770Z,94701.91
2023-05-09T04:36:35.743Z,94705.59
2023-05-09T04:51:37.659Z,94708.97
2023-05-09T05:06:39.525Z,94707.94
2023-05-09T05:21:41.466Z,94706.63
2023-05-09T05:36:43.629Z,94721.56
2023-05-09T05:51:45.579Z,94713.94
2023-05-09T06:06:47.506Z,94715.97
2023-05-09T06:21:49.508Z,94708.44
2023-05-09T06:36:51.461Z,94714.69
2023-05-09T06:51:53.469Z,94715.25
2023-05-09T07:06:55.373Z,94715.16
2023-05-09T07:21:57.298Z,94716.44
2023-05-09T07:36:59.282Z,94726.25
2023-05-09T07:52:01.514Z,94721.84
2023-05-09T08:07:04.449Z,94701.16
2023-05-09T08:22:06.467Z,94712.44
2023-05-09T08:37:08.577Z,94707.78
2023-05-09T08:52:11.624Z,94703.00
2023-05-09T09:07:15.423Z,94698.34
2023-05-09T09:22:19.875Z,94705.34
2023-05-09T09:37:23.493Z,94715.16
2023-05-09T09:52:26.786Z,94706.41
2023-05-09T10:07:35.461Z,94714.28
2023-05-09T10:22:39.941Z,94705.66
2023-05-09T10:37:42.173Z,94680.13
2023-05-09T10:53:07.464Z,94686.25
2023-05-09T11:08:19.516Z,94686.03
2023-05-09T11:23:25.659Z,94684.34
2023-05-09T11:38:40.549Z,94688.63
2023-05-09T11:53:46.786Z,94687.94
2023-05-09T12:08:48.927Z,94687.66
2023-05-09T12:23:52.488Z,94694.50
2023-05-09T12:38:55.575Z,94683.28
2023-05-09T12:54:03.784Z,94659.22
2023-05-09T13:09:09.404Z,94666.53
2023-05-09T13:24:11.191Z,94647.13
2023-05-09T13:39:13.541Z,94644.03
2023-05-09T13:54:17.339Z,94635.09
2023-05-09T14:09:19.607Z,94633.66
2023-05-09T14:24:21.494Z,94651.84
2023-05-09T14:39:23.251Z,94636.94
2023-05-09T14:54:25.231Z,94643.00
2023-05-09T15:09:27.121Z,94640.91
2023-05-09T15:24:28.835Z,94645.97
2023-05-09T15:39:34.805Z,94643.06
2023-05-09T15:54:37.629Z,94651.56
2023-05-09T16:09:39.318Z,94652.22
2023-05-09T16:24:41.061Z,94660.47
2023-05-09T16:39:42.794Z,94671.81
2023-05-09T16:54:44.564Z,94671.97
2023-05-09T17:09:48.506Z,94680.97
2023-05-09T17:24:50.247Z,94689.19
2023-05-09T17:39:52.010Z,94689.66
2023-05-09T17:54:53.804Z,94701.56
2023-05-09T18:09:55.668Z,94711.91
2023-05-09T18:24:57.578Z,94718.88
2023-05-09T18:39:59.476Z,94724.47
2023-05-09T18:55:01.289Z,94721.75
2023-05-09T19:10:08.387Z,94733.06
2023-05-09T19:25:10.293Z,94739.13
2023-05-09T19:40:12.217Z,94737.66
2023-05-09T19:55:14.420Z,94728.53
2023-05-09T20:10:16.245Z,94725.72
2023-05-09T20:25:18.210Z,94721.03
2023-05-09T20:40:19.989Z,94716.56
2023-05-09T20:55:21.785Z,94705.50
2023-05-09T21:10:23.580Z,94701.03
2023-05-09T21:25:25.338Z,94692.47
2023-05-09T21:40:27.054Z,94685.22
2023-05-09T21:55:28.724Z,94689.97
2023-05-09T22:10:30.611Z,94677.94
2023-05-09T22:25:32.329Z,94671.34
2023-05-09T22:40:34.407Z,94663.56
2023-05-09T22:55:36.662Z,94635.97
2023-05-09T23:10:38.470Z,94640.22
2023-05-09T23:25:40.337Z,94637.81
2023-05-09T23:40:46.130Z,94628.69
2023-05-09T23:55:47.999Z,94612.22
